Date,TemperatureHighF,TemperatureAvgF,TemperatureLowF,DewpointHighF,DewpointAvgF,DewpointLowF,HumidityHigh,HumidityAvg,HumidityLow,PressureMaxIn,PressureMinIn,WindSpeedMaxMPH,WindSpeedAvgMPH,GustSpeedMaxMPH,PrecipitationSumIn
2013-6-18,60,60,59,59,59,58,98,97,95,29.96,29.93,0,0,3,0.49
2013-6-19,77,66,59,58,53,48,97,67,36,30.17,29.92,0,0,3,0.03
2013-6-20,82,72,55,56,52,47,96,53,30,30.29,30.23,1,0,5,0.00
2013-6-21,79,73,60,62,59,55,83,61,56,30.30,30.24,1,1,5,0.00
2013-6-22,85,76,65,62,58,55,79,55,36,30.25,30.16,1,0,5,0.00
2013-6-24,94,84,69,73,70,68,98,68,47,30.00,29.91,3,1,8,0.53
2013-6-25,94,79,66,73,69,66,99,76,41,29.97,29.77,1,0,8,0.00
2013-6-27,74,72,68,70,68,66,96,89,84,29.84,29.78,0,0,2,0.00
2013-6-30,84,77,71,74,71,68,98,83,70,29.97,29.82,1,0,4,0.23
2013-7-1,84,75,71,76,73,70,99,93,74,30.12,29.96,1,0,4,0.15
2013-7-2,85,76,72,76,73,71,98,88,70,30.22,30.11,1,0,5,0.00
2013-7-3,90,83,74,75,73,71,93,74,57,30.25,30.18,2,1,6,0.00
2013-7-4,93,89,81,77,75,74,81,63,55,30.23,30.14,2,1,4,0.00
2013-7-5,84,80,78,75,74,72,84,80,75,30.11,30.08,0,0,1,0.00
2013-7-6,94,84,76,75,73,72,87,72,50,30.11,30.00,1,0,3,0.00
2013-7-7,92,83,78,76,73,71,87,73,57,29.97,29.92,1,0,1,0.00
2013-7-8,92,82,71,74,72,68,93,72,47,30.07,29.93,1,0,3,0.00
2013-7-9,80,72,68,71,69,66,97,89,74,30.11,30.05,1,0,2,0.22
2013-7-10,85,74,71,75,71,70,96,91,71,30.08,29.95,1,0,1,0.00
2013-7-11,80,76,70,75,73,69,98,89,81,29.93,29.85,0,0,1,0.56
2013-7-12,73,70,68,70,66,60,98,87,70,30.20,29.93,1,0,3,0.00
2013-7-13,77,72,67,75,72,66,98,97,94,30.32,30.27,0,0,3,0.13
2013-7-14,92,89,74,74,72,71,96,61,50,30.32,30.25,1,1,2,0.00
2013-7-15,94,90,80,74,73,71,80,58,49,30.19,30.11,1,0,2,0.00
2013-7-16,86,81,78,73,72,71,84,73,65,30.18,30.14,0,0,1,0.00
2013-7-17,94,83,72,75,72,70,97,72,47,30.20,30.05,1,0,4,0.00
2013-7-18,94,86,82,77,76,76,82,73,56,29.98,29.96,0,0,1,0.00
2013-7-19,98,91,78,78,76,74,90,63,47,29.93,29.77,2,1,7,0.00
2013-7-20,81,76,73,78,74,72,98,95,88,29.82,29.73,1,0,7,0.36
2013-7-21,88,76,67,73,68,65,99,79,50,30.01,29.84,1,0,2,0.00
2013-7-22,88,77,68,72,69,66,97,79,52,30.02,29.89,1,0,5,0.00
2013-7-23,87,76,72,79,74,70,99,92,68,29.89,29.56,2,0,3,0.67
2013-7-24,87,78,71,74,71,60,99,81,58,29.94,29.61,1,0,4,0.00
2013-7-25,72,63,60,60,57,52,97,81,65,30.09,29.94,1,0,5,0.45
2013-7-26,70,66,61,67,65,60,98,96,88,30.04,29.99,0,0,2,0.41
2013-7-27,78,69,64,65,64,64,98,87,66,30.05,30.03,0,0,3,0.01
2013-7-28,84,80,68,72,70,67,97,71,63,30.00,29.98,1,0,3,0.00
2013-7-29,87,79,70,75,71,68,96,78,62,30.06,29.99,1,0,2,0.00
2013-7-30,64,63,63,59,59,59,86,86,85,30.10,30.10,0,0,0,0.00
2013-7-31,85,80,71,66,62,57,74,55,39,30.14,30.07,1,0,3,0.00
2013-8-1,84,76,68,66,64,58,91,68,50,30.01,29.93,1,0,3,0.00
2013-8-2,76,73,72,65,64,64,78,75,69,29.90,29.87,0,0,1,0.25
2013-8-3,80,76,68,67,65,64,90,70,60,29.87,29.82,1,0,4,0.03
2013-8-5,78,68,56,55,50,42,92,56,28,30.07,29.95,2,0,6,0.00
2013-8-6,82,67,52,56,52,48,97,65,32,30.18,30.07,1,0,3,0.00
2013-8-7,82,67,54,63,56,46,99,71,29,30.21,30.15,1,0,4,0.00
2013-8-8,82,72,65,71,66,60,95,83,69,30.16,30.06,1,0,4,0.03
2013-8-9,75,74,71,74,74,71,99,98,97,29.87,29.80,1,0,3,2.15
2013-8-10,84,81,74,74,65,59,99,60,45,29.93,29.82,1,1,2,0.00
2013-8-11,81,79,77,57,54,52,45,41,38,30.10,30.06,1,1,6,0.00
2013-8-12,84,76,66,65,62,58,92,63,43,30.00,29.95,1,0,4,0.00
2013-8-13,67,66,64,64,64,63,95,93,90,29.75,29.73,0,0,0,0.02
2013-8-14,76,73,71,55,54,53,54,52,48,29.84,29.77,2,1,2,0.00
2013-8-15,79,73,61,57,53,48,78,51,37,30.14,30.06,1,0,4,0.00
2013-8-16,82,72,63,59,56,54,83,60,39,30.22,30.15,1,0,4,0.00
2013-8-17,83,69,57,62,58,55,95,70,42,30.30,30.23,1,0,1,0.00
2013-8-18,84,67,58,64,59,51,98,78,32,30.30,30.21,0,0,2,0.00
2013-8-19,71,71,70,64,64,64,80,79,78,30.03,30.02,0,0,2,0.00
2013-8-21,90,79,72,67,64,62,77,63,41,30.08,30.06,1,0,3,0.00
2013-8-22,86,75,66,73,69,64,98,84,63,30.08,29.87,1,0,2,0.00
2013-8-23,82,73,68,70,65,58,97,76,44,29.98,29.85,1,0,4,0.00
2013-8-24,80,71,56,54,49,41,90,49,26,30.36,30.30,2,0,3,0.00
2013-8-25,85,68,52,61,53,45,99,65,25,30.39,30.23,1,0,2,0.00
2013-8-26,76,70,67,66,62,60,79,77,65,30.17,29.94,1,0,4,0.00
2013-8-28,82,80,79,70,69,68,70,68,67,29.89,29.89,0,0,0,0.00
2013-8-29,68,65,62,64,62,59,91,89,85,30.08,30.05,1,0,2,0.00
2013-8-30,83,75,67,70,68,63,97,80,61,30.00,29.87,1,0,3,0.00
2013-8-31,83,74,68,74,71,67,99,89,72,29.87,29.84,1,0,2,0.00
2013-9-3,77,71,64,73,69,61,97,93,82,29.85,29.75,0,0,4,0.16
2013-9-4,81,72,62,61,60,57,96,68,45,29.96,29.90,1,0,4,0.00
2013-9-5,72,64,56,61,56,53,95,75,58,30.14,29.95,1,0,1,0.10
2013-9-7,80,78,77,54,52,51,44,40,38,30.01,29.96,1,1,4,0.00
2013-9-9,64,52,44,52,49,43,96,88,62,30.22,30.17,0,0,5,0.00
2013-9-10,76,66,53,70,62,51,94,87,80,30.20,30.08,1,0,4,0.00
2013-9-11,86,80,75,76,72,71,87,79,72,30.06,29.99,1,0,1,0.00
2013-9-12,89,77,69,75,71,68,98,82,57,30.01,29.73,2,0,5,0.21
2013-9-13,81,72,65,70,67,60,99,86,60,29.75,29.59,1,0,3,0.13
2013-9-15,73,60,48,54,51,47,98,76,44,30.20,30.09,1,0,3,0.00
2013-9-16,68,59,50,58,54,39,94,83,62,30.25,30.05,2,0,2,0.03
2013-9-17,64,52,42,45,40,37,95,66,37,30.45,30.26,2,0,4,0.00
2013-9-18,76,57,42,52,46,41,98,71,33,30.36,30.18,1,0,2,0.00
2013-9-19,81,63,45,57,51,45,99,70,36,30.19,30.06,1,0,1,0.00
2013-9-25,62,59,56,52,50,48,78,71,68,30.00,29.94,0,0,1,0.00
2013-9-26,69,59,51,51,50,47,95,74,49,30.14,30.02,1,0,2,0.00
2013-9-27,66,58,49,54,52,48,97,80,63,30.28,30.14,1,0,4,0.00
2013-9-28,76,63,46,57,53,46,100,72,45,30.34,30.28,1,0,3,0.00
2013-9-29,73,57,44,55,48,43,99,77,37,30.29,30.13,1,0,2,0.00
2013-9-30,71,58,49,54,50,43,97,77,37,30.14,29.99,1,0,2,0.00
2013-10-1,80,61,46,57,52,45,100,76,36,29.98,29.87,1,0,2,0.00
2013-10-2,82,67,52,62,57,52,100,76,47,29.94,29.87,2,0,5,0.00
2013-10-4,68,60,51,59,56,50,97,89,64,30.10,30.06,1,0,3,0.12
2013-10-5,74,64,58,63,59,53,98,86,68,30.15,30.07,1,0,2,0.01
2013-10-6,62,60,59,59,58,55,94,90,80,30.22,30.13,0,0,2,0.04
2013-10-10,67,60,51,56,54,49,92,80,64,30.33,30.18,1,0,2,0.00
2013-10-11,71,61,54,59,55,52,95,83,65,30.18,30.10,1,0,3,0.00
2013-10-12,68,60,53,57,54,50,91,81,66,30.39,30.21,2,1,3,0.00
2013-10-13,64,54,42,51,48,41,96,81,59,30.45,30.37,2,0,4,0.00
2013-10-14,67,50,36,48,43,36,99,80,43,30.44,30.28,1,0,2,0.00
2013-10-15,74,56,43,52,48,42,99,77,43,30.30,30.18,1,0,3,0.00
2013-10-16,63,55,44,57,52,44,99,91,79,30.20,29.95,1,0,1,0.00
2013-10-17,70,60,50,62,57,50,100,90,72,29.94,29.75,1,0,3,0.02
2013-10-18,70,62,48,62,52,44,98,73,41,29.93,29.66,2,0,4,0.00
2013-10-19,65,59,54,50,48,44,85,67,48,29.91,29.78,1,0,2,0.00
2013-10-20,65,54,40,52,41,32,97,66,31,30.06,29.73,2,0,5,0.00
2013-10-21,70,52,36,45,40,36,96,69,34,30.15,30.04,1,0,3,0.00
2013-10-22,72,53,40,54,46,40,99,80,39,30.04,29.73,2,0,4,0.00
2013-10-23,51,44,38,42,38,32,98,82,49,29.83,29.62,0,0,1,0.00
2013-10-24,55,48,42,30,27,24,59,46,32,29.93,29.81,2,0,4,0.00
2013-10-25,53,41,30,35,30,27,93,66,37,30.07,29.93,2,0,4,0.00
2013-10-26,49,47,45,37,37,36,73,67,61,29.95,29.94,0,0,6,0.00
2013-10-27,59,50,40,41,34,30,96,56,39,30.03,29.87,2,0,5,0.02
2013-10-28,62,55,30,35,33,29,95,46,35,30.20,30.13,2,1,5,0.00
2013-11-1,67,63,59,64,57,54,94,82,71,29.68,29.53,3,1,7,0.10
2013-11-2,69,57,50,55,49,40,96,77,35,29.74,29.61,1,0,3,0.00
2013-11-3,52,44,34,47,34,18,88,69,44,30.43,29.74,2,1,6,0.00
2013-11-4,46,35,26,24,20,15,88,56,30,30.74,30.44,2,0,4,0.00
2013-11-5,53,38,25,32,27,23,92,70,40,30.74,30.59,1,0,3,0.00
2013-11-6,51,50,50,49,49,48,95,94,94,30.18,30.17,0,0,0,0.00
2013-11-7,58,43,37,57,40,34,97,87,80,29.92,29.77,1,0,7,0.40
2013-11-8,50,39,28,37,29,24,98,70,47,30.13,29.86,2,0,5,0.00
2013-11-13,24,24,24,16,16,16,74,73,71,30.26,30.23,0,0,0,0.00
2013-11-14,44,42,38,25,20,18,60,42,35,30.17,30.15,1,0,1,0.00
2013-11-15,62,46,34,38,26,16,93,49,22,30.24,30.16,2,0,5,0.00
2013-11-16,61,44,33,39,35,32,95,73,40,30.35,30.23,1,0,3,0.00
2013-11-17,58,48,33,58,46,32,99,93,73,30.33,29.87,0,0,1,0.13
2013-11-18,67,59,46,63,49,33,100,71,41,29.86,29.58,3,1,10,0.52
2013-11-19,48,42,35,32,25,20,60,50,40,30.23,29.70,5,1,7,0.00
2013-11-20,39,30,25,18,17,15,73,58,38,30.56,30.33,2,1,5,0.00
2013-11-21,44,39,38,32,28,24,75,64,45,30.52,30.42,0,0,7,0.00
2013-11-22,52,47,40,50,44,32,98,91,75,30.42,29.85,0,0,1,0.17
2013-11-23,50,42,30,47,28,15,96,60,33,29.94,29.83,3,1,6,0.00
2013-11-24,28,24,21,4,0,-4,41,34,26,30.25,29.98,4,2,14,0.00
2013-11-25,34,25,17,21,5,-4,68,44,21,30.41,30.25,2,0,3,0.00
2013-11-26,44,38,30,39,26,19,97,64,42,30.35,30.05,1,0,4,0.23
2013-11-27,62,52,36,62,51,33,99,96,87,30.03,29.24,5,1,8,3.73
2013-11-28,37,31,23,33,18,10,88,60,41,30.48,29.53,3,1,6,0.00
2013-11-29,37,29,22,20,15,7,81,57,42,30.76,30.48,1,0,3,0.00
2013-11-30,36,26,17,25,16,9,84,68,48,30.81,30.47,1,0,2,0.00
2013-12-1,43,36,30,43,34,25,99,92,80,30.45,30.03,1,0,2,0.29
2013-12-2,44,38,33,41,37,32,99,96,87,30.03,29.94,1,0,2,0.00
2013-12-3,50,39,31,38,35,30,99,86,56,29.98,29.86,2,0,3,0.00
2013-12-4,50,36,27,33,30,26,99,83,50,30.23,29.99,1,0,2,0.00
2013-12-5,55,44,32,55,42,30,100,94,88,30.22,29.96,1,0,2,0.01
2013-12-6,56,50,38,56,49,37,100,94,89,30.15,29.90,2,0,6,0.40
2013-12-7,40,39,37,32,28,26,74,66,62,30.30,30.25,2,1,5,0.18
2013-12-8,32,31,30,19,18,17,64,59,57,30.59,30.51,1,0,1,0.00
2013-12-9,39,34,27,39,32,19,99,95,64,30.51,29.92,1,0,2,0.12
2013-12-10,33,31,23,33,29,21,99,95,83,30.05,29.82,0,0,1,0.00
2013-12-11,32,30,28,23,22,21,74,70,67,30.27,30.19,2,1,3,0.00
2013-12-13,33,26,21,18,15,13,85,65,45,30.39,30.07,2,0,7,0.00
2013-12-14,28,18,14,27,10,-2,96,70,45,30.62,30.13,2,0,3,0.00
2013-12-15,37,30,22,36,28,20,98,92,81,30.12,29.41,3,0,5,0.42
2013-12-16,31,23,11,23,14,9,97,71,46,30.25,29.79,2,0,3,0.00
2013-12-17,22,15,6,20,12,3,93,89,76,30.30,29.95,2,0,4,0.00
2013-12-18,36,27,20,23,20,17,90,77,57,30.13,29.88,2,1,5,0.00
2013-12-19,35,34,33,30,29,28,86,81,77,30.15,30.08,0,0,0,0.13
2013-12-20,55,39,27,40,33,26,97,80,53,30.15,29.96,2,0,2,0.18
2013-12-21,60,47,35,52,44,34,99,89,68,30.03,29.91,1,0,4,0.00
2013-12-22,64,58,43,60,55,40,93,89,81,30.02,29.81,4,1,7,0.00
2013-12-23,43,39,36,41,38,34,99,97,92,30.10,29.97,2,0,3,0.73
2013-12-24,41,34,27,40,26,17,95,72,51,30.24,30.07,3,1,4,0.00
2013-12-25,27,21,17,18,7,3,78,56,41,30.57,30.24,3,0,5,0.00
2013-12-26,36,28,18,32,23,12,94,83,73,30.52,30.11,0,0,1,0.00
2013-12-27,37,29,23,25,21,19,89,74,50,30.33,30.23,1,0,2,0.02
2013-12-28,50,34,21,32,25,19,95,72,42,30.27,30.04,3,0,3,0.00
2013-12-30,40,31,21,37,18,12,89,58,47,30.18,29.91,3,1,5,0.00